sensor_id;sensor_type;location;lat;lon;timestamp;P1;durP1;ratioP1;P2;durP2;ratioP2
23390;SDS011;11868;45.606;5.302;2022-11-20T00:01:31;7.82;;;4.50;;
23390;SDS011;11868;45.606;5.302;2022-11-20T00:03:57;11.10;;;4.57;;
23390;SDS011;11868;45.606;5.302;2022-11-20T00:06:23;8.77;;;4.45;;
23390;SDS011;11868;45.606;5.302;2022-11-20T00:08:49;8.93;;;4.10;;
23390;SDS011;11868;45.606;5.302;2022-11-20T00:11:15;10.60;;;4.53;;
23390;SDS011;11868;45.606;5.302;2022-11-20T00:13:45;10.02;;;4.43;;
23390;SDS011;11868;45.606;5.302;2022-11-20T00:16:13;8.93;;;4.10;;
23390;SDS011;11868;45.606;5.302;2022-11-20T00:18:39;6.90;;;3.72;;
23390;SDS011;11868;45.606;5.302;2022-11-20T00:21:05;5.72;;;3.63;;
23390;SDS011;11868;45.606;5.302;2022-11-20T00:23:32;10.05;;;5.25;;
23390;SDS011;11868;45.606;5.302;2022-11-20T00:26:02;13.68;;;4.72;;
23390;SDS011;11868;45.606;5.302;2022-11-20T00:28:29;9.07;;;4.47;;
23390;SDS011;11868;45.606;5.302;2022-11-20T00:31:00;7.90;;;4.47;;
23390;SDS011;11868;45.606;5.302;2022-11-20T00:33:26;7.65;;;4.68;;
23390;SDS011;11868;45.606;5.302;2022-11-20T00:35:52;11.48;;;4.72;;
23390;SDS011;11868;45.606;5.302;2022-11-20T00:38:18;7.35;;;4.70;;
23390;SDS011;11868;45.606;5.302;2022-11-20T00:40:43;7.32;;;4.13;;
23390;SDS011;11868;45.606;5.302;2022-11-20T00:43:08;12.18;;;4.70;;
23390;SDS011;11868;45.606;5.302;2022-11-20T00:45:34;8.95;;;4.60;;
23390;SDS011;11868;45.606;5.302;2022-11-20T00:47:59;9.70;;;4.55;;
23390;SDS011;11868;45.606;5.302;2022-11-20T00:50:24;10.38;;;4.97;;
23390;SDS011;11868;45.606;5.302;2022-11-20T00:52:50;9.57;;;4.63;;
23390;SDS011;11868;45.606;5.302;2022-11-20T00:55:15;8.15;;;4.43;;
23390;SDS011;11868;45.606;5.302;2022-11-20T00:57:40;8.93;;;4.38;;
23390;SDS011;11868;45.606;5.302;2022-11-20T01:00:06;10.98;;;4.65;;
23390;SDS011;11868;45.606;5.302;2022-11-20T01:02:31;9.60;;;4.30;;
23390;SDS011;11868;45.606;5.302;2022-11-20T01:04:57;8.15;;;4.43;;
23390;SDS011;11868;45.606;5.302;2022-11-20T01:07:22;8.77;;;4.82;;
23390;SDS011;11868;45.606;5.302;2022-11-20T01:09:47;7.07;;;4.25;;
23390;SDS011;11868;45.606;5.302;2022-11-20T01:12:13;8.93;;;4.78;;
23390;SDS011;11868;45.606;5.302;2022-11-20T01:14:38;8.20;;;4.18;;
23390;SDS011;11868;45.606;5.302;2022-11-20T01:17:03;10.00;;;4.50;;
23390;SDS011;11868;45.606;5.302;2022-11-20T01:19:29;11.80;;;4.45;;
23390;SDS011;11868;45.606;5.302;2022-11-20T01:21:54;9.43;;;4.93;;
23390;SDS011;11868;45.606;5.302;2022-11-20T01:24:20;12.63;;;4.53;;
23390;SDS011;11868;45.606;5.302;2022-11-20T01:26:47;11.63;;;4.35;;
23390;SDS011;11868;45.606;5.302;2022-11-20T01:29:17;9.73;;;4.57;;
23390;SDS011;11868;45.606;5.302;2022-11-20T01:31:49;8.98;;;4.43;;
23390;SDS011;11868;45.606;5.302;2022-11-20T01:34:16;9.55;;;4.30;;
23390;SDS011;11868;45.606;5.302;2022-11-20T01:36:43;10.65;;;4.68;;
23390;SDS011;11868;45.606;5.302;2022-11-20T01:39:13;10.43;;;4.05;;
23390;SDS011;11868;45.606;5.302;2022-11-20T01:41:43;8.90;;;4.40;;
23390;SDS011;11868;45.606;5.302;2022-11-20T01:47:27;7.28;;;4.28;;
23390;SDS011;11868;45.606;5.302;2022-11-20T01:49:59;6.57;;;4.50;;
23390;SDS011;11868;45.606;5.302;2022-11-20T01:52:28;9.10;;;4.32;;
23390;SDS011;11868;45.606;5.302;2022-11-20T01:54:59;8.20;;;4.65;;
23390;SDS011;11868;45.606;5.302;2022-11-20T01:57:30;7.40;;;4.18;;
23390;SDS011;11868;45.606;5.302;2022-11-20T01:59:58;7.40;;;4.90;;
23390;SDS011;11868;45.606;5.302;2022-11-20T02:02:25;11.25;;;4.53;;
23390;SDS011;11868;45.606;5.302;2022-11-20T02:04:51;10.00;;;4.78;;
23390;SDS011;11868;45.606;5.302;2022-11-20T02:07:17;9.80;;;4.65;;
23390;SDS011;11868;45.606;5.302;2022-11-20T02:09:42;11.23;;;5.35;;
23390;SDS011;11868;45.606;5.302;2022-11-20T02:12:08;9.98;;;5.18;;
23390;SDS011;11868;45.606;5.302;2022-11-20T02:14:53;13.15;;;4.68;;
23390;SDS011;11868;45.606;5.302;2022-11-20T02:17:18;11.02;;;5.45;;
23390;SDS011;11868;45.606;5.302;2022-11-20T02:19:43;12.35;;;5.07;;
23390;SDS011;11868;45.606;5.302;2022-11-20T02:22:27;11.13;;;5.55;;
23390;SDS011;11868;45.606;5.302;2022-11-20T02:24:55;10.00;;;5.45;;
23390;SDS011;11868;45.606;5.302;2022-11-20T02:27:22;11.30;;;5.53;;
23390;SDS011;11868;45.606;5.302;2022-11-20T02:29:50;8.55;;;5.50;;
23390;SDS011;11868;45.606;5.302;2022-11-20T02:32:21;10.77;;;5.60;;
23390;SDS011;11868;45.606;5.302;2022-11-20T02:34:48;13.60;;;5.88;;
23390;SDS011;11868;45.606;5.302;2022-11-20T02:37:14;14.68;;;5.78;;
23390;SDS011;11868;45.606;5.302;2022-11-20T02:39:39;10.73;;;5.13;;
23390;SDS011;11868;45.606;5.302;2022-11-20T02:42:05;9.18;;;5.43;;
23390;SDS011;11868;45.606;5.302;2022-11-20T02:44:30;9.90;;;5.38;;
23390;SDS011;11868;45.606;5.302;2022-11-20T02:46:58;9.70;;;5.50;;
23390;SDS011;11868;45.606;5.302;2022-11-20T02:49:24;9.10;;;5.80;;
23390;SDS011;11868;45.606;5.302;2022-11-20T02:51:50;11.32;;;5.90;;
23390;SDS011;11868;45.606;5.302;2022-11-20T02:54:15;13.98;;;6.03;;
23390;SDS011;11868;45.606;5.302;2022-11-20T02:56:41;12.13;;;5.55;;
23390;SDS011;11868;45.606;5.302;2022-11-20T02:59:06;8.43;;;5.85;;
23390;SDS011;11868;45.606;5.302;2022-11-20T03:01:32;13.32;;;6.30;;
23390;SDS011;11868;45.606;5.302;2022-11-20T03:03:57;12.57;;;6.07;;
23390;SDS011;11868;45.606;5.302;2022-11-20T03:06:23;10.65;;;5.90;;
23390;SDS011;11868;45.606;5.302;2022-11-20T03:08:48;11.18;;;5.88;;
23390;SDS011;11868;45.606;5.302;2022-11-20T03:11:13;9.43;;;5.78;;
23390;SDS011;11868;45.606;5.302;2022-11-20T03:13:39;8.20;;;6.00;;
23390;SDS011;11868;45.606;5.302;2022-11-20T03:16:18;13.30;;;6.22;;
23390;SDS011;11868;45.606;5.302;2022-11-20T03:18:44;13.57;;;5.65;;
23390;SDS011;11868;45.606;5.302;2022-11-20T03:21:10;11.20;;;5.28;;
23390;SDS011;11868;45.606;5.302;2022-11-20T03:23:37;10.13;;;5.40;;
23390;SDS011;11868;45.606;5.302;2022-11-20T03:26:10;8.65;;;5.20;;
23390;SDS011;11868;45.606;5.302;2022-11-20T03:28:36;10.02;;;5.50;;
23390;SDS011;11868;45.606;5.302;2022-11-20T03:31:11;9.90;;;5.60;;
23390;SDS011;11868;45.606;5.302;2022-11-20T03:33:38;11.65;;;5.35;;
23390;SDS011;11868;45.606;5.302;2022-11-20T03:36:05;11.55;;;6.05;;
23390;SDS011;11868;45.606;5.302;2022-11-20T03:38:32;10.20;;;6.03;;
23390;SDS011;11868;45.606;5.302;2022-11-20T03:40:58;12.18;;;5.47;;
23390;SDS011;11868;45.606;5.302;2022-11-20T03:43:25;11.63;;;6.13;;
23390;SDS011;11868;45.606;5.302;2022-11-20T03:45:50;11.77;;;5.88;;
23390;SDS011;11868;45.606;5.302;2022-11-20T03:48:16;8.05;;;5.43;;
23390;SDS011;11868;45.606;5.302;2022-11-20T03:50:41;10.52;;;5.15;;
23390;SDS011;11868;45.606;5.302;2022-11-20T03:53:06;10.70;;;5.55;;
23390;SDS011;11868;45.606;5.302;2022-11-20T03:55:32;11.57;;;5.57;;
23390;SDS011;11868;45.606;5.302;2022-11-20T03:57:57;13.00;;;5.90;;
23390;SDS011;11868;45.606;5.302;2022-11-20T04:00:22;8.10;;;5.18;;
23390;SDS011;11868;45.606;5.302;2022-11-20T04:02:48;9.18;;;5.40;;
23390;SDS011;11868;45.606;5.302;2022-11-20T04:05:13;8.65;;;5.05;;
23390;SDS011;11868;45.606;5.302;2022-11-20T04:07:38;10.85;;;5.70;;
23390;SDS011;11868;45.606;5.302;2022-11-20T04:10:04;10.52;;;4.75;;
23390;SDS011;11868;45.606;5.302;2022-11-20T04:12:31;8.38;;;5.32;;
23390;SDS011;11868;45.606;5.302;2022-11-20T04:14:57;10.65;;;5.40;;
23390;SDS011;11868;45.606;5.302;2022-11-20T04:17:22;9.18;;;4.90;;
23390;SDS011;11868;45.606;5.302;2022-11-20T04:19:47;9.20;;;4.95;;
23390;SDS011;11868;45.606;5.302;2022-11-20T04:22:13;6.55;;;4.90;;
23390;SDS011;11868;45.606;5.302;2022-11-20T04:24:38;9.50;;;5.07;;
23390;SDS011;11868;45.606;5.302;2022-11-20T04:27:03;8.30;;;5.03;;
23390;SDS011;11868;45.606;5.302;2022-11-20T04:29:29;9.55;;;5.07;;
23390;SDS011;11868;45.606;5.302;2022-11-20T04:31:54;11.20;;;5.43;;
23390;SDS011;11868;45.606;5.302;2022-11-20T04:34:19;10.60;;;4.80;;
23390;SDS011;11868;45.606;5.302;2022-11-20T04:36:45;8.95;;;5.10;;
23390;SDS011;11868;45.606;5.302;2022-11-20T04:39:14;13.32;;;5.47;;
23390;SDS011;11868;45.606;5.302;2022-11-20T04:41:40;8.55;;;4.80;;
23390;SDS011;11868;45.606;5.302;2022-11-20T04:44:06;9.65;;;4.80;;
23390;SDS011;11868;45.606;5.302;2022-11-20T04:46:32;6.28;;;4.13;;
23390;SDS011;11868;45.606;5.302;2022-11-20T04:49:02;7.85;;;4.50;;
23390;SDS011;11868;45.606;5.302;2022-11-20T04:51:27;10.35;;;4.82;;
23390;SDS011;11868;45.606;5.302;2022-11-20T04:53:53;11.80;;;4.88;;
23390;SDS011;11868;45.606;5.302;2022-11-20T04:56:18;9.70;;;4.18;;
23390;SDS011;11868;45.606;5.302;2022-11-20T04:58:44;13.45;;;4.78;;
23390;SDS011;11868;45.606;5.302;2022-11-20T05:01:14;8.27;;;4.50;;
23390;SDS011;11868;45.606;5.302;2022-11-20T05:03:40;9.85;;;4.78;;
23390;SDS011;11868;45.606;5.302;2022-11-20T05:06:06;8.68;;;4.53;;
23390;SDS011;11868;45.606;5.302;2022-11-20T05:08:32;10.90;;;4.82;;
23390;SDS011;11868;45.606;5.302;2022-11-20T05:11:05;6.35;;;4.40;;
23390;SDS011;11868;45.606;5.302;2022-11-20T05:13:32;6.72;;;4.18;;
23390;SDS011;11868;45.606;5.302;2022-11-20T05:16:01;7.97;;;4.25;;
23390;SDS011;11868;45.606;5.302;2022-11-20T05:18:27;7.18;;;3.95;;
23390;SDS011;11868;45.606;5.302;2022-11-20T05:20:59;9.50;;;4.22;;
23390;SDS011;11868;45.606;5.302;2022-11-20T05:23:24;10.48;;;4.07;;
23390;SDS011;11868;45.606;5.302;2022-11-20T05:25:53;9.00;;;4.10;;
23390;SDS011;11868;45.606;5.302;2022-11-20T05:28:19;8.65;;;4.18;;
23390;SDS011;11868;45.606;5.302;2022-11-20T05:30:45;9.80;;;4.07;;
23390;SDS011;11868;45.606;5.302;2022-11-20T05:33:10;8.38;;;3.72;;
23390;SDS011;11868;45.606;5.302;2022-11-20T05:35:35;6.15;;;3.70;;
23390;SDS011;11868;45.606;5.302;2022-11-20T05:38:01;7.68;;;4.47;;
23390;SDS011;11868;45.606;5.302;2022-11-20T05:40:26;10.40;;;5.55;;
23390;SDS011;11868;45.606;5.302;2022-11-20T05:42:51;8.45;;;4.78;;
23390;SDS011;11868;45.606;5.302;2022-11-20T05:45:17;10.18;;;4.93;;
23390;SDS011;11868;45.606;5.302;2022-11-20T05:47:42;10.75;;;4.82;;
23390;SDS011;11868;45.606;5.302;2022-11-20T05:50:07;8.15;;;4.85;;
23390;SDS011;11868;45.606;5.302;2022-11-20T05:52:33;6.55;;;4.93;;
23390;SDS011;11868;45.606;5.302;2022-11-20T05:54:58;10.05;;;5.00;;
23390;SDS011;11868;45.606;5.302;2022-11-20T05:57:23;9.65;;;4.85;;
23390;SDS011;11868;45.606;5.302;2022-11-20T05:59:49;8.13;;;4.47;;
23390;SDS011;11868;45.606;5.302;2022-11-20T06:02:14;6.65;;;4.50;;
23390;SDS011;11868;45.606;5.302;2022-11-20T06:04:40;10.55;;;5.13;;
23390;SDS011;11868;45.606;5.302;2022-11-20T06:07:05;8.63;;;4.60;;
23390;SDS011;11868;45.606;5.302;2022-11-20T06:09:31;9.30;;;5.28;;
23390;SDS011;11868;45.606;5.302;2022-11-20T06:11:57;10.32;;;5.63;;
23390;SDS011;11868;45.606;5.302;2022-11-20T06:14:22;13.25;;;4.90;;
23390;SDS011;11868;45.606;5.302;2022-11-20T06:16:49;7.90;;;3.65;;
23390;SDS011;11868;45.606;5.302;2022-11-20T06:19:14;9.65;;;4.40;;
23390;SDS011;11868;45.606;5.302;2022-11-20T06:21:40;8.00;;;4.40;;
23390;SDS011;11868;45.606;5.302;2022-11-20T06:24:05;6.22;;;4.15;;
23390;SDS011;11868;45.606;5.302;2022-11-20T06:26:31;7.25;;;4.50;;
23390;SDS011;11868;45.606;5.302;2022-11-20T06:28:56;8.52;;;4.72;;
23390;SDS011;11868;45.606;5.302;2022-11-20T06:31:22;7.63;;;4.90;;
23390;SDS011;11868;45.606;5.302;2022-11-20T06:33:48;9.07;;;5.18;;
23390;SDS011;11868;45.606;5.302;2022-11-20T06:36:15;8.98;;;5.00;;
23390;SDS011;11868;45.606;5.302;2022-11-20T06:38:41;9.27;;;5.28;;
23390;SDS011;11868;45.606;5.302;2022-11-20T06:41:08;8.68;;;5.25;;
23390;SDS011;11868;45.606;5.302;2022-11-20T06:43:36;10.07;;;5.75;;
23390;SDS011;11868;45.606;5.302;2022-11-20T06:46:02;12.60;;;6.18;;
23390;SDS011;11868;45.606;5.302;2022-11-20T06:48:27;11.63;;;5.68;;
23390;SDS011;11868;45.606;5.302;2022-11-20T06:50:53;9.65;;;5.75;;
23390;SDS011;11868;45.606;5.302;2022-11-20T06:53:18;9.07;;;5.80;;
23390;SDS011;11868;45.606;5.302;2022-11-20T06:55:47;10.27;;;5.85;;
23390;SDS011;11868;45.606;5.302;2022-11-20T06:58:13;11.82;;;6.32;;
23390;SDS011;11868;45.606;5.302;2022-11-20T07:00:39;9.32;;;5.90;;
23390;SDS011;11868;45.606;5.302;2022-11-20T07:03:05;11.20;;;6.53;;
23390;SDS011;11868;45.606;5.302;2022-11-20T07:05:32;12.43;;;6.10;;
23390;SDS011;11868;45.606;5.302;2022-11-20T07:07:57;16.70;;;11.10;;
23390;SDS011;11868;45.606;5.302;2022-11-20T07:10:23;14.32;;;10.02;;
23390;SDS011;11868;45.606;5.302;2022-11-20T07:12:49;12.80;;;6.68;;
23390;SDS011;11868;45.606;5.302;2022-11-20T07:15:15;27.27;;;19.52;;
23390;SDS011;11868;45.606;5.302;2022-11-20T07:17:41;43.35;;;31.42;;
23390;SDS011;11868;45.606;5.302;2022-11-20T07:20:06;35.58;;;20.15;;
23390;SDS011;11868;45.606;5.302;2022-11-20T07:22:32;16.13;;;11.60;;
23390;SDS011;11868;45.606;5.302;2022-11-20T07:24:57;13.50;;;9.82;;
23390;SDS011;11868;45.606;5.302;2022-11-20T07:27:22;11.68;;;8.13;;
23390;SDS011;11868;45.606;5.302;2022-11-20T07:29:48;9.93;;;7.70;;
23390;SDS011;11868;45.606;5.302;2022-11-20T07:32:13;15.73;;;8.43;;
23390;SDS011;11868;45.606;5.302;2022-11-20T07:34:38;11.52;;;7.93;;
23390;SDS011;11868;45.606;5.302;2022-11-20T07:37:04;10.70;;;7.43;;
23390;SDS011;11868;45.606;5.302;2022-11-20T07:39:29;12.50;;;7.47;;
23390;SDS011;11868;45.606;5.302;2022-11-20T07:41:54;13.73;;;7.88;;
23390;SDS011;11868;45.606;5.302;2022-11-20T07:44:20;13.05;;;7.63;;
23390;SDS011;11868;45.606;5.302;2022-11-20T07:46:45;10.77;;;7.10;;
23390;SDS011;11868;45.606;5.302;2022-11-20T07:49:10;11.18;;;7.00;;
23390;SDS011;11868;45.606;5.302;2022-11-20T07:51:36;9.80;;;6.85;;
23390;SDS011;11868;45.606;5.302;2022-11-20T07:54:01;9.02;;;6.38;;
23390;SDS011;11868;45.606;5.302;2022-11-20T07:56:26;8.35;;;6.65;;
23390;SDS011;11868;45.606;5.302;2022-11-20T07:58:52;15.50;;;6.47;;
23390;SDS011;11868;45.606;5.302;2022-11-20T08:01:17;11.15;;;6.60;;
23390;SDS011;11868;45.606;5.302;2022-11-20T08:03:42;10.73;;;6.32;;
23390;SDS011;11868;45.606;5.302;2022-11-20T08:06:08;12.55;;;8.18;;
23390;SDS011;11868;45.606;5.302;2022-11-20T08:08:34;11.77;;;8.07;;
23390;SDS011;11868;45.606;5.302;2022-11-20T08:10:59;12.35;;;8.00;;
23390;SDS011;11868;45.606;5.302;2022-11-20T08:13:43;14.07;;;7.35;;
23390;SDS011;11868;45.606;5.302;2022-11-20T08:16:27;12.93;;;7.28;;
23390;SDS011;11868;45.606;5.302;2022-11-20T08:18:53;11.68;;;6.93;;
23390;SDS011;11868;45.606;5.302;2022-11-20T08:21:18;13.10;;;7.13;;
23390;SDS011;11868;45.606;5.302;2022-11-20T08:23:43;10.07;;;6.72;;
23390;SDS011;11868;45.606;5.302;2022-11-20T08:26:09;15.88;;;6.90;;
23390;SDS011;11868;45.606;5.302;2022-11-20T08:28:34;16.02;;;7.50;;
23390;SDS011;11868;45.606;5.302;2022-11-20T08:31:00;12.80;;;7.05;;
23390;SDS011;11868;45.606;5.302;2022-11-20T08:33:25;17.50;;;7.78;;
23390;SDS011;11868;45.606;5.302;2022-11-20T08:35:51;12.13;;;6.57;;
23390;SDS011;11868;45.606;5.302;2022-11-20T08:38:16;9.68;;;6.93;;
23390;SDS011;11868;45.606;5.302;2022-11-20T08:40:42;12.55;;;6.63;;
23390;SDS011;11868;45.606;5.302;2022-11-20T08:43:27;11.45;;;6.88;;
23390;SDS011;11868;45.606;5.302;2022-11-20T08:45:52;13.35;;;7.00;;
23390;SDS011;11868;45.606;5.302;2022-11-20T08:48:18;11.18;;;6.45;;
23390;SDS011;11868;45.606;5.302;2022-11-20T08:50:43;9.85;;;6.15;;
23390;SDS011;11868;45.606;5.302;2022-11-20T08:53:08;10.43;;;6.03;;
23390;SDS011;11868;45.606;5.302;2022-11-20T08:55:34;13.30;;;6.90;;
23390;SDS011;11868;45.606;5.302;2022-11-20T08:58:05;10.70;;;6.43;;
23390;SDS011;11868;45.606;5.302;2022-11-20T09:02:57;7.03;;;4.13;;
23390;SDS011;11868;45.606;5.302;2022-11-20T09:05:23;11.95;;;5.35;;
23390;SDS011;11868;45.606;5.302;2022-11-20T09:07:49;7.78;;;4.80;;
23390;SDS011;11868;45.606;5.302;2022-11-20T09:10:14;13.48;;;4.93;;
23390;SDS011;11868;45.606;5.302;2022-11-20T09:12:39;10.30;;;4.75;;
23390;SDS011;11868;45.606;5.302;2022-11-20T09:15:05;13.60;;;6.80;;
23390;SDS011;11868;45.606;5.302;2022-11-20T09:17:31;11.73;;;6.65;;
23390;SDS011;11868;45.606;5.302;2022-11-20T09:19:56;10.63;;;6.85;;
23390;SDS011;11868;45.606;5.302;2022-11-20T09:22:21;8.20;;;6.57;;
23390;SDS011;11868;45.606;5.302;2022-11-20T09:24:47;12.10;;;7.05;;
23390;SDS011;11868;45.606;5.302;2022-11-20T09:27:12;12.13;;;6.60;;
23390;SDS011;11868;45.606;5.302;2022-11-20T09:29:37;12.25;;;6.20;;
23390;SDS011;11868;45.606;5.302;2022-11-20T09:32:03;9.80;;;5.75;;
23390;SDS011;11868;45.606;5.302;2022-11-20T09:34:28;10.13;;;5.47;;
23390;SDS011;11868;45.606;5.302;2022-11-20T09:36:54;11.77;;;5.90;;
23390;SDS011;11868;45.606;5.302;2022-11-20T09:39:19;9.57;;;5.20;;
23390;SDS011;11868;45.606;5.302;2022-11-20T09:47:07;10.73;;;4.43;;
23390;SDS011;11868;45.606;5.302;2022-11-20T09:49:38;13.68;;;5.32;;
23390;SDS011;11868;45.606;5.302;2022-11-20T09:55:02;10.05;;;4.47;;
23390;SDS011;11868;45.606;5.302;2022-11-20T09:57:32;11.80;;;4.57;;
23390;SDS011;11868;45.606;5.302;2022-11-20T10:00:02;9.60;;;4.97;;
23390;SDS011;11868;45.606;5.302;2022-11-20T10:02:41;9.55;;;4.35;;
23390;SDS011;11868;45.606;5.302;2022-11-20T10:05:20;6.18;;;4.28;;
23390;SDS011;11868;45.606;5.302;2022-11-20T10:07:52;7.30;;;3.75;;
23390;SDS011;11868;45.606;5.302;2022-11-20T10:13:06;6.70;;;2.92;;
23390;SDS011;11868;45.606;5.302;2022-11-20T10:21:11;5.40;;;2.47;;
23390;SDS011;11868;45.606;5.302;2022-11-20T10:23:58;5.03;;;2.20;;
23390;SDS011;11868;45.606;5.302;2022-11-20T10:26:35;5.63;;;2.38;;
23390;SDS011;11868;45.606;5.302;2022-11-20T10:29:13;5.85;;;2.83;;
23390;SDS011;11868;45.606;5.302;2022-11-20T10:31:44;4.78;;;2.60;;
23390;SDS011;11868;45.606;5.302;2022-11-20T10:34:21;9.27;;;2.67;;
23390;SDS011;11868;45.606;5.302;2022-11-20T10:37:31;5.95;;;2.88;;
23390;SDS011;11868;45.606;5.302;2022-11-20T10:39:44;5.32;;;2.55;;
23390;SDS011;11868;45.606;5.302;2022-11-20T10:42:24;8.00;;;2.70;;
23390;SDS011;11868;45.606;5.302;2022-11-20T10:44:58;5.32;;;2.28;;
23390;SDS011;11868;45.606;5.302;2022-11-20T10:47:30;127.13;;;10.88;;
23390;SDS011;11868;45.606;5.302;2022-11-20T10:49:57;7.55;;;2.30;;
23390;SDS011;11868;45.606;5.302;2022-11-20T10:52:32;3.92;;;1.95;;
23390;SDS011;11868;45.606;5.302;2022-11-20T10:58:10;7.05;;;2.28;;
23390;SDS011;11868;45.606;5.302;2022-11-20T11:00:39;9.40;;;2.65;;
23390;SDS011;11868;45.606;5.302;2022-11-20T11:03:20;4.40;;;2.38;;
23390;SDS011;11868;45.606;5.302;2022-11-20T11:08:43;6.13;;;2.30;;
23390;SDS011;11868;45.606;5.302;2022-11-20T11:13:45;5.80;;;2.60;;
23390;SDS011;11868;45.606;5.302;2022-11-20T11:16:24;4.55;;;2.20;;
23390;SDS011;11868;45.606;5.302;2022-11-20T11:18:50;4.80;;;2.20;;
23390;SDS011;11868;45.606;5.302;2022-11-20T11:21:25;4.47;;;2.35;;
23390;SDS011;11868;45.606;5.302;2022-11-20T11:24:03;6.05;;;1.90;;
23390;SDS011;11868;45.606;5.302;2022-11-20T11:26:29;4.68;;;2.15;;
23390;SDS011;11868;45.606;5.302;2022-11-20T11:31:24;3.28;;;2.15;;
23390;SDS011;11868;45.606;5.302;2022-11-20T11:34:12;6.43;;;2.45;;
23390;SDS011;11868;45.606;5.302;2022-11-20T11:36:39;6.05;;;2.63;;
23390;SDS011;11868;45.606;5.302;2022-11-20T11:39:06;5.60;;;2.33;;
23390;SDS011;11868;45.606;5.302;2022-11-20T11:41:39;5.30;;;1.95;;
23390;SDS011;11868;45.606;5.302;2022-11-20T11:44:21;5.47;;;2.05;;
23390;SDS011;11868;45.606;5.302;2022-11-20T11:47:10;3.40;;;2.33;;
23390;SDS011;11868;45.606;5.302;2022-11-20T11:52:16;9.65;;;2.30;;
23390;SDS011;11868;45.606;5.302;2022-11-20T11:55:01;6.47;;;2.20;;
23390;SDS011;11868;45.606;5.302;2022-11-20T12:00:18;4.28;;;2.33;;
23390;SDS011;11868;45.606;5.302;2022-11-20T12:07:41;5.18;;;2.03;;
23390;SDS011;11868;45.606;5.302;2022-11-20T12:12:51;4.68;;;2.17;;
23390;SDS011;11868;45.606;5.302;2022-11-20T12:15:25;6.53;;;2.50;;
23390;SDS011;11868;45.606;5.302;2022-11-20T12:17:54;5.70;;;2.58;;
23390;SDS011;11868;45.606;5.302;2022-11-20T12:20:19;8.35;;;2.40;;
23390;SDS011;11868;45.606;5.302;2022-11-20T12:22:50;5.75;;;2.25;;
23390;SDS011;11868;45.606;5.302;2022-11-20T12:25:22;5.55;;;2.00;;
23390;SDS011;11868;45.606;5.302;2022-11-20T12:27:57;4.32;;;1.77;;
23390;SDS011;11868;45.606;5.302;2022-11-20T12:30:32;4.97;;;2.80;;
23390;SDS011;11868;45.606;5.302;2022-11-20T12:43:37;6.38;;;1.83;;
23390;SDS011;11868;45.606;5.302;2022-11-20T12:46:34;14.48;;;8.93;;
23390;SDS011;11868;45.606;5.302;2022-11-20T12:59:28;2.20;;;1.35;;
23390;SDS011;11868;45.606;5.302;2022-11-20T13:07:42;5.40;;;1.48;;
23390;SDS011;11868;45.606;5.302;2022-11-20T13:10:13;3.47;;;1.77;;
23390;SDS011;11868;45.606;5.302;2022-11-20T13:12:48;1.50;;;1.10;;
23390;SDS011;11868;45.606;5.302;2022-11-20T13:18:10;3.25;;;1.23;;
23390;SDS011;11868;45.606;5.302;2022-11-20T13:20:36;2.20;;;0.88;;
23390;SDS011;11868;45.606;5.302;2022-11-20T13:23:06;2.60;;;0.82;;
23390;SDS011;11868;45.606;5.302;2022-11-20T13:25:38;2.42;;;0.75;;
23390;SDS011;11868;45.606;5.302;2022-11-20T13:41:10;4.03;;;1.63;;
23390;SDS011;11868;45.606;5.302;2022-11-20T13:46:37;2.85;;;2.20;;
23390;SDS011;11868;45.606;5.302;2022-11-20T13:51:49;3.22;;;1.40;;
23390;SDS011;11868;45.606;5.302;2022-11-20T13:54:34;1.98;;;1.30;;
23390;SDS011;11868;45.606;5.302;2022-11-20T14:00:20;1.67;;;1.13;;
23390;SDS011;11868;45.606;5.302;2022-11-20T14:02:57;3.70;;;1.38;;
23390;SDS011;11868;45.606;5.302;2022-11-20T14:05:27;3.72;;;1.35;;
23390;SDS011;11868;45.606;5.302;2022-11-20T14:07:53;3.70;;;1.80;;
23390;SDS011;11868;45.606;5.302;2022-11-20T14:10:20;6.22;;;1.80;;
23390;SDS011;11868;45.606;5.302;2022-11-20T14:12:52;2.22;;;1.35;;
23390;SDS011;11868;45.606;5.302;2022-11-20T14:15:31;3.22;;;1.30;;
23390;SDS011;11868;45.606;5.302;2022-11-20T14:17:58;3.70;;;1.58;;
23390;SDS011;11868;45.606;5.302;2022-11-20T14:20:25;2.70;;;1.30;;
23390;SDS011;11868;45.606;5.302;2022-11-20T14:22:52;3.17;;;1.60;;
23390;SDS011;11868;45.606;5.302;2022-11-20T14:25:20;4.38;;;1.60;;
23390;SDS011;11868;45.606;5.302;2022-11-20T14:27:56;4.28;;;1.48;;
23390;SDS011;11868;45.606;5.302;2022-11-20T14:30:23;3.72;;;1.73;;
23390;SDS011;11868;45.606;5.302;2022-11-20T14:32:51;4.65;;;2.30;;
23390;SDS011;11868;45.606;5.302;2022-11-20T14:35:26;6.90;;;1.90;;
23390;SDS011;11868;45.606;5.302;2022-11-20T14:37:57;4.72;;;1.55;;
23390;SDS011;11868;45.606;5.302;2022-11-20T14:42:48;3.47;;;1.50;;
23390;SDS011;11868;45.606;5.302;2022-11-20T14:45:14;5.95;;;1.80;;
23390;SDS011;11868;45.606;5.302;2022-11-20T14:47:40;5.65;;;2.08;;
23390;SDS011;11868;45.606;5.302;2022-11-20T14:50:07;2.55;;;1.85;;
23390;SDS011;11868;45.606;5.302;2022-11-20T14:52:58;3.05;;;1.83;;
23390;SDS011;11868;45.606;5.302;2022-11-20T14:55:43;4.25;;;2.13;;
23390;SDS011;11868;45.606;5.302;2022-11-20T14:58:22;3.45;;;1.70;;
23390;SDS011;11868;45.606;5.302;2022-11-20T15:00:59;5.95;;;2.05;;
23390;SDS011;11868;45.606;5.302;2022-11-20T15:03:33;7.05;;;2.00;;
23390;SDS011;11868;45.606;5.302;2022-11-20T15:06:00;6.60;;;2.13;;
23390;SDS011;11868;45.606;5.302;2022-11-20T15:08:25;4.53;;;1.88;;
23390;SDS011;11868;45.606;5.302;2022-11-20T15:10:51;5.82;;;2.10;;
23390;SDS011;11868;45.606;5.302;2022-11-20T15:15:55;5.40;;;3.20;;
23390;SDS011;11868;45.606;5.302;2022-11-20T15:18:32;7.43;;;2.92;;
23390;SDS011;11868;45.606;5.302;2022-11-20T15:23:27;5.65;;;1.90;;
23390;SDS011;11868;45.606;5.302;2022-11-20T15:25:53;4.60;;;2.13;;
23390;SDS011;11868;45.606;5.302;2022-11-20T15:28:23;5.80;;;2.20;;
23390;SDS011;11868;45.606;5.302;2022-11-20T15:30:50;5.32;;;1.98;;
23390;SDS011;11868;45.606;5.302;2022-11-20T15:33:16;4.07;;;2.05;;
23390;SDS011;11868;45.606;5.302;2022-11-20T15:35:42;3.53;;;2.10;;
23390;SDS011;11868;45.606;5.302;2022-11-20T15:38:08;5.47;;;2.80;;
23390;SDS011;11868;45.606;5.302;2022-11-20T15:40:33;4.45;;;2.88;;
23390;SDS011;11868;45.606;5.302;2022-11-20T15:42:59;4.40;;;2.35;;
23390;SDS011;11868;45.606;5.302;2022-11-20T15:45:28;5.05;;;2.08;;
23390;SDS011;11868;45.606;5.302;2022-11-20T15:47:55;53.03;;;22.60;;
23390;SDS011;11868;45.606;5.302;2022-11-20T15:50:20;36.25;;;16.23;;
23390;SDS011;11868;45.606;5.302;2022-11-20T15:52:46;19.35;;;10.18;;
23390;SDS011;11868;45.606;5.302;2022-11-20T15:55:12;14.82;;;10.13;;
23390;SDS011;11868;45.606;5.302;2022-11-20T15:57:37;14.20;;;9.13;;
23390;SDS011;11868;45.606;5.302;2022-11-20T16:00:02;13.15;;;8.35;;
23390;SDS011;11868;45.606;5.302;2022-11-20T16:02:28;12.63;;;7.28;;
23390;SDS011;11868;45.606;5.302;2022-11-20T16:04:53;16.67;;;8.23;;
23390;SDS011;11868;45.606;5.302;2022-11-20T16:07:19;8.45;;;4.47;;
23390;SDS011;11868;45.606;5.302;2022-11-20T16:09:44;11.38;;;5.28;;
23390;SDS011;11868;45.606;5.302;2022-11-20T16:12:09;10.77;;;5.10;;
23390;SDS011;11868;45.606;5.302;2022-11-20T16:14:55;11.90;;;6.57;;
23390;SDS011;11868;45.606;5.302;2022-11-20T16:17:39;43.33;;;21.83;;
23390;SDS011;11868;45.606;5.302;2022-11-20T16:20:13;152.63;;;81.40;;
23390;SDS011;11868;45.606;5.302;2022-11-20T16:22:39;117.93;;;62.53;;
23390;SDS011;11868;45.606;5.302;2022-11-20T16:25:04;107.13;;;53.22;;
23390;SDS011;11868;45.606;5.302;2022-11-20T16:27:30;97.90;;;46.03;;
23390;SDS011;11868;45.606;5.302;2022-11-20T16:29:55;81.55;;;40.97;;
23390;SDS011;11868;45.606;5.302;2022-11-20T16:32:20;56.85;;;29.42;;